sensor_id;sensor_type;location;lat;lon;timestamp;P1;durP1;ratioP1;P2;durP2;ratioP2
37545;SDS011;23389;52.484;13.572;2023-05-02T00:00:57;14.63;;;11.68;;
37545;SDS011;23389;52.484;13.572;2023-05-02T00:03:22;15.35;;;11.00;;
37545;SDS011;23389;52.484;13.572;2023-05-02T00:05:48;15.57;;;11.40;;
37545;SDS011;23389;52.484;13.572;2023-05-02T00:08:13;15.15;;;10.88;;
37545;SDS011;23389;52.484;13.572;2023-05-02T00:10:38;15.32;;;11.18;;
37545;SDS011;23389;52.484;13.572;2023-05-02T00:13:03;15.93;;;11.88;;
37545;SDS011;23389;52.484;13.572;2023-05-02T00:15:28;14.48;;;11.23;;
37545;SDS011;23389;52.484;13.572;2023-05-02T00:17:53;14.83;;;10.27;;
37545;SDS011;23389;52.484;13.572;2023-05-02T00:20:18;14.55;;;10.95;;
37545;SDS011;23389;52.484;13.572;2023-05-02T00:22:43;16.02;;;10.93;;
37545;SDS011;23389;52.484;13.572;2023-05-02T00:25:09;15.48;;;12.07;;
37545;SDS011;23389;52.484;13.572;2023-05-02T00:27:34;14.43;;;11.18;;
37545;SDS011;23389;52.484;13.572;2023-05-02T00:29:59;16.35;;;11.00;;
37545;SDS011;23389;52.484;13.572;2023-05-02T00:32:25;16.52;;;10.90;;
37545;SDS011;23389;52.484;13.572;2023-05-02T00:34:50;18.38;;;11.25;;
37545;SDS011;23389;52.484;13.572;2023-05-02T00:37:15;15.50;;;10.98;;
37545;SDS011;23389;52.484;13.572;2023-05-02T00:39:41;18.23;;;11.87;;
37545;SDS011;23389;52.484;13.572;2023-05-02T00:42:06;16.63;;;11.57;;
37545;SDS011;23389;52.484;13.572;2023-05-02T00:44:31;14.38;;;11.10;;
37545;SDS011;23389;52.484;13.572;2023-05-02T00:46:57;15.85;;;11.15;;
37545;SDS011;23389;52.484;13.572;2023-05-02T00:49:22;18.27;;;10.95;;
37545;SDS011;23389;52.484;13.572;2023-05-02T00:51:47;15.10;;;10.93;;
37545;SDS011;23389;52.484;13.572;2023-05-02T00:54:13;16.33;;;11.00;;
37545;SDS011;23389;52.484;13.572;2023-05-02T00:56:38;17.23;;;12.07;;
37545;SDS011;23389;52.484;13.572;2023-05-02T00:59:04;15.82;;;10.82;;
37545;SDS011;23389;52.484;13.572;2023-05-02T01:01:35;15.48;;;10.20;;
37545;SDS011;23389;52.484;13.572;2023-05-02T01:06:52;14.40;;;10.57;;
37545;SDS011;23389;52.484;13.572;2023-05-02T01:12:19;16.25;;;11.75;;
37545;SDS011;23389;52.484;13.572;2023-05-02T01:14:49;16.55;;;10.65;;
37545;SDS011;23389;52.484;13.572;2023-05-02T01:17:15;15.80;;;10.45;;
37545;SDS011;23389;52.484;13.572;2023-05-02T01:19:42;15.65;;;10.10;;
37545;SDS011;23389;52.484;13.572;2023-05-02T01:22:09;15.25;;;11.00;;
37545;SDS011;23389;52.484;13.572;2023-05-02T01:24:42;14.65;;;10.40;;
37545;SDS011;23389;52.484;13.572;2023-05-02T01:29:52;15.73;;;11.25;;
37545;SDS011;23389;52.484;13.572;2023-05-02T01:32:20;16.05;;;10.82;;
37545;SDS011;23389;52.484;13.572;2023-05-02T01:34:47;13.75;;;11.02;;
37545;SDS011;23389;52.484;13.572;2023-05-02T01:37:13;15.63;;;10.52;;
37545;SDS011;23389;52.484;13.572;2023-05-02T01:39:39;17.85;;;10.70;;
37545;SDS011;23389;52.484;13.572;2023-05-02T01:42:04;14.52;;;10.38;;
37545;SDS011;23389;52.484;13.572;2023-05-02T01:44:30;15.57;;;11.00;;
37545;SDS011;23389;52.484;13.572;2023-05-02T01:46:57;13.60;;;10.25;;
37545;SDS011;23389;52.484;13.572;2023-05-02T01:49:23;12.13;;;8.70;;
37545;SDS011;23389;52.484;13.572;2023-05-02T01:51:49;15.00;;;9.55;;
37545;SDS011;23389;52.484;13.572;2023-05-02T01:54:15;10.30;;;6.43;;
37545;SDS011;23389;52.484;13.572;2023-05-02T01:56:41;10.35;;;6.07;;
37545;SDS011;23389;52.484;13.572;2023-05-02T01:59:09;10.60;;;5.30;;
37545;SDS011;23389;52.484;13.572;2023-05-02T02:01:35;8.43;;;4.95;;
37545;SDS011;23389;52.484;13.572;2023-05-02T02:04:01;9.55;;;5.40;;
37545;SDS011;23389;52.484;13.572;2023-05-02T02:06:28;9.85;;;5.18;;
37545;SDS011;23389;52.484;13.572;2023-05-02T02:08:53;11.00;;;5.53;;
37545;SDS011;23389;52.484;13.572;2023-05-02T02:11:25;9.93;;;4.90;;
37545;SDS011;23389;52.484;13.572;2023-05-02T02:14:03;9.30;;;5.03;;
37545;SDS011;23389;52.484;13.572;2023-05-02T02:16:29;12.98;;;5.68;;
37545;SDS011;23389;52.484;13.572;2023-05-02T02:18:55;11.30;;;5.00;;
37545;SDS011;23389;52.484;13.572;2023-05-02T02:21:21;8.65;;;4.30;;
37545;SDS011;23389;52.484;13.572;2023-05-02T02:23:47;9.60;;;4.57;;
37545;SDS011;23389;52.484;13.572;2023-05-02T02:26:14;11.15;;;4.70;;
37545;SDS011;23389;52.484;13.572;2023-05-02T02:28:41;7.55;;;4.20;;
37545;SDS011;23389;52.484;13.572;2023-05-02T02:31:06;8.70;;;4.43;;
37545;SDS011;23389;52.484;13.572;2023-05-02T02:33:32;7.53;;;4.78;;
37545;SDS011;23389;52.484;13.572;2023-05-02T02:36:07;7.05;;;3.85;;
37545;SDS011;23389;52.484;13.572;2023-05-02T02:38:37;6.22;;;4.03;;
37545;SDS011;23389;52.484;13.572;2023-05-02T02:41:09;8.48;;;4.35;;
37545;SDS011;23389;52.484;13.572;2023-05-02T02:43:41;9.40;;;4.78;;
37545;SDS011;23389;52.484;13.572;2023-05-02T02:46:28;8.05;;;4.55;;
37545;SDS011;23389;52.484;13.572;2023-05-02T02:48:56;8.35;;;4.15;;
37545;SDS011;23389;52.484;13.572;2023-05-02T02:52:01;9.48;;;4.00;;
37545;SDS011;23389;52.484;13.572;2023-05-02T02:54:20;10.60;;;4.45;;
37545;SDS011;23389;52.484;13.572;2023-05-02T02:56:48;6.28;;;3.95;;
37545;SDS011;23389;52.484;13.572;2023-05-02T02:59:15;7.20;;;3.95;;
37545;SDS011;23389;52.484;13.572;2023-05-02T03:01:42;7.35;;;4.35;;
37545;SDS011;23389;52.484;13.572;2023-05-02T03:04:09;10.00;;;4.72;;
37545;SDS011;23389;52.484;13.572;2023-05-02T03:06:35;7.80;;;4.63;;
37545;SDS011;23389;52.484;13.572;2023-05-02T03:09:01;9.55;;;4.75;;
37545;SDS011;23389;52.484;13.572;2023-05-02T03:11:28;7.70;;;3.97;;
37545;SDS011;23389;52.484;13.572;2023-05-02T03:13:53;8.40;;;4.25;;
37545;SDS011;23389;52.484;13.572;2023-05-02T03:18:58;6.93;;;4.15;;
37545;SDS011;23389;52.484;13.572;2023-05-02T03:21:23;7.88;;;4.15;;
37545;SDS011;23389;52.484;13.572;2023-05-02T03:23:49;12.88;;;4.13;;
37545;SDS011;23389;52.484;13.572;2023-05-02T03:26:14;6.82;;;3.80;;
37545;SDS011;23389;52.484;13.572;2023-05-02T03:28:40;9.00;;;4.32;;
37545;SDS011;23389;52.484;13.572;2023-05-02T03:31:05;9.98;;;4.07;;
37545;SDS011;23389;52.484;13.572;2023-05-02T03:33:30;8.80;;;4.40;;
37545;SDS011;23389;52.484;13.572;2023-05-02T03:35:56;6.65;;;3.92;;
37545;SDS011;23389;52.484;13.572;2023-05-02T03:38:21;9.77;;;4.27;;
37545;SDS011;23389;52.484;13.572;2023-05-02T03:40:46;8.25;;;4.03;;
37545;SDS011;23389;52.484;13.572;2023-05-02T03:43:12;9.37;;;3.93;;
37545;SDS011;23389;52.484;13.572;2023-05-02T03:45:37;7.20;;;3.93;;
37545;SDS011;23389;52.484;13.572;2023-05-02T03:48:02;8.77;;;4.30;;
37545;SDS011;23389;52.484;13.572;2023-05-02T03:50:27;7.93;;;3.93;;
37545;SDS011;23389;52.484;13.572;2023-05-02T03:52:52;9.80;;;4.25;;
37545;SDS011;23389;52.484;13.572;2023-05-02T03:55:17;9.30;;;4.13;;
37545;SDS011;23389;52.484;13.572;2023-05-02T03:57:42;9.23;;;4.38;;
37545;SDS011;23389;52.484;13.572;2023-05-02T04:00:08;7.97;;;4.30;;
37545;SDS011;23389;52.484;13.572;2023-05-02T04:02:33;7.97;;;3.88;;
37545;SDS011;23389;52.484;13.572;2023-05-02T04:04:58;8.40;;;4.18;;
37545;SDS011;23389;52.484;13.572;2023-05-02T04:07:23;9.73;;;4.18;;
37545;SDS011;23389;52.484;13.572;2023-05-02T04:09:49;8.13;;;4.38;;
37545;SDS011;23389;52.484;13.572;2023-05-02T04:12:15;8.05;;;3.75;;
37545;SDS011;23389;52.484;13.572;2023-05-02T04:14:40;10.15;;;3.97;;
37545;SDS011;23389;52.484;13.572;2023-05-02T04:17:05;8.95;;;4.07;;
37545;SDS011;23389;52.484;13.572;2023-05-02T04:19:30;6.07;;;3.33;;
37545;SDS011;23389;52.484;13.572;2023-05-02T04:21:55;7.53;;;3.50;;
37545;SDS011;23389;52.484;13.572;2023-05-02T04:24:21;7.82;;;3.95;;
37545;SDS011;23389;52.484;13.572;2023-05-02T04:26:46;8.38;;;3.78;;
37545;SDS011;23389;52.484;13.572;2023-05-02T04:29:12;6.85;;;3.58;;
37545;SDS011;23389;52.484;13.572;2023-05-02T04:31:38;10.07;;;3.58;;
37545;SDS011;23389;52.484;13.572;2023-05-02T04:34:03;9.07;;;3.70;;
37545;SDS011;23389;52.484;13.572;2023-05-02T04:36:28;7.53;;;3.55;;
37545;SDS011;23389;52.484;13.572;2023-05-02T04:38:53;9.48;;;3.88;;
37545;SDS011;23389;52.484;13.572;2023-05-02T04:41:19;9.52;;;3.83;;
37545;SDS011;23389;52.484;13.572;2023-05-02T04:43:45;7.15;;;3.55;;
37545;SDS011;23389;52.484;13.572;2023-05-02T04:46:10;7.78;;;3.95;;
37545;SDS011;23389;52.484;13.572;2023-05-02T04:48:35;9.05;;;3.97;;
37545;SDS011;23389;52.484;13.572;2023-05-02T04:51:00;9.73;;;3.90;;
37545;SDS011;23389;52.484;13.572;2023-05-02T04:53:25;8.07;;;4.25;;
37545;SDS011;23389;52.484;13.572;2023-05-02T04:55:51;7.47;;;3.95;;
37545;SDS011;23389;52.484;13.572;2023-05-02T04:58:16;8.55;;;4.18;;
37545;SDS011;23389;52.484;13.572;2023-05-02T05:00:41;7.22;;;3.95;;
37545;SDS011;23389;52.484;13.572;2023-05-02T05:03:06;10.65;;;4.50;;
37545;SDS011;23389;52.484;13.572;2023-05-02T05:05:31;8.00;;;4.07;;
37545;SDS011;23389;52.484;13.572;2023-05-02T05:07:57;7.72;;;4.05;;
37545;SDS011;23389;52.484;13.572;2023-05-02T05:10:22;8.05;;;4.20;;
37545;SDS011;23389;52.484;13.572;2023-05-02T05:12:47;8.50;;;4.07;;
37545;SDS011;23389;52.484;13.572;2023-05-02T05:15:13;9.52;;;4.38;;
37545;SDS011;23389;52.484;13.572;2023-05-02T05:17:38;7.30;;;3.87;;
37545;SDS011;23389;52.484;13.572;2023-05-02T05:20:03;8.30;;;4.13;;
37545;SDS011;23389;52.484;13.572;2023-05-02T05:22:29;6.78;;;3.88;;
37545;SDS011;23389;52.484;13.572;2023-05-02T05:24:54;7.95;;;3.90;;
37545;SDS011;23389;52.484;13.572;2023-05-02T05:27:19;7.28;;;4.32;;
37545;SDS011;23389;52.484;13.572;2023-05-02T05:29:44;9.32;;;4.45;;
37545;SDS011;23389;52.484;13.572;2023-05-02T05:32:09;8.53;;;4.60;;
37545;SDS011;23389;52.484;13.572;2023-05-02T05:34:35;7.30;;;4.45;;
37545;SDS011;23389;52.484;13.572;2023-05-02T05:37:00;9.40;;;4.85;;
37545;SDS011;23389;52.484;13.572;2023-05-02T05:39:25;8.40;;;4.55;;
37545;SDS011;23389;52.484;13.572;2023-05-02T05:41:50;9.40;;;4.90;;
37545;SDS011;23389;52.484;13.572;2023-05-02T05:44:16;9.57;;;4.50;;
37545;SDS011;23389;52.484;13.572;2023-05-02T05:46:41;11.48;;;4.72;;
37545;SDS011;23389;52.484;13.572;2023-05-02T05:49:06;8.98;;;5.00;;
37545;SDS011;23389;52.484;13.572;2023-05-02T05:51:31;8.70;;;4.97;;
37545;SDS011;23389;52.484;13.572;2023-05-02T05:53:57;9.17;;;4.47;;
37545;SDS011;23389;52.484;13.572;2023-05-02T05:56:22;8.48;;;4.38;;
37545;SDS011;23389;52.484;13.572;2023-05-02T05:58:47;10.90;;;4.93;;
37545;SDS011;23389;52.484;13.572;2023-05-02T06:01:12;9.98;;;4.85;;
37545;SDS011;23389;52.484;13.572;2023-05-02T06:03:37;8.73;;;5.35;;
37545;SDS011;23389;52.484;13.572;2023-05-02T06:06:03;9.30;;;5.15;;
37545;SDS011;23389;52.484;13.572;2023-05-02T06:08:28;8.70;;;4.65;;
37545;SDS011;23389;52.484;13.572;2023-05-02T06:10:53;10.33;;;5.57;;
37545;SDS011;23389;52.484;13.572;2023-05-02T06:13:18;10.75;;;5.57;;
37545;SDS011;23389;52.484;13.572;2023-05-02T06:15:43;12.18;;;5.72;;
37545;SDS011;23389;52.484;13.572;2023-05-02T06:18:08;10.35;;;5.72;;
37545;SDS011;23389;52.484;13.572;2023-05-02T06:20:34;9.33;;;5.70;;
37545;SDS011;23389;52.484;13.572;2023-05-02T06:22:59;9.77;;;5.65;;
37545;SDS011;23389;52.484;13.572;2023-05-02T06:25:24;11.05;;;5.22;;
37545;SDS011;23389;52.484;13.572;2023-05-02T06:27:50;11.80;;;5.80;;
37545;SDS011;23389;52.484;13.572;2023-05-02T06:30:15;9.57;;;5.68;;
37545;SDS011;23389;52.484;13.572;2023-05-02T06:32:40;11.40;;;6.00;;
37545;SDS011;23389;52.484;13.572;2023-05-02T06:35:08;10.80;;;6.15;;
37545;SDS011;23389;52.484;13.572;2023-05-02T06:37:33;10.38;;;6.13;;
37545;SDS011;23389;52.484;13.572;2023-05-02T06:39:59;9.85;;;5.68;;
37545;SDS011;23389;52.484;13.572;2023-05-02T06:42:24;10.93;;;5.82;;
37545;SDS011;23389;52.484;13.572;2023-05-02T06:44:49;13.50;;;6.20;;
37545;SDS011;23389;52.484;13.572;2023-05-02T06:47:15;8.95;;;6.05;;
37545;SDS011;23389;52.484;13.572;2023-05-02T06:49:40;12.00;;;6.55;;
37545;SDS011;23389;52.484;13.572;2023-05-02T06:52:05;10.17;;;5.93;;
37545;SDS011;23389;52.484;13.572;2023-05-02T06:54:30;9.35;;;6.13;;
37545;SDS011;23389;52.484;13.572;2023-05-02T06:56:55;12.17;;;5.83;;
37545;SDS011;23389;52.484;13.572;2023-05-02T06:59:21;10.90;;;6.20;;
37545;SDS011;23389;52.484;13.572;2023-05-02T07:01:46;12.23;;;6.97;;
37545;SDS011;23389;52.484;13.572;2023-05-02T07:04:11;14.38;;;7.30;;
37545;SDS011;23389;52.484;13.572;2023-05-02T07:06:36;17.63;;;8.07;;
37545;SDS011;23389;52.484;13.572;2023-05-02T07:09:01;14.60;;;8.37;;
37545;SDS011;23389;52.484;13.572;2023-05-02T07:11:27;12.83;;;7.80;;
37545;SDS011;23389;52.484;13.572;2023-05-02T07:13:52;13.88;;;8.15;;
37545;SDS011;23389;52.484;13.572;2023-05-02T07:16:17;15.05;;;7.57;;
37545;SDS011;23389;52.484;13.572;2023-05-02T07:18:42;12.43;;;7.50;;
37545;SDS011;23389;52.484;13.572;2023-05-02T07:21:09;12.73;;;7.55;;
37545;SDS011;23389;52.484;13.572;2023-05-02T07:23:34;12.65;;;7.57;;
37545;SDS011;23389;52.484;13.572;2023-05-02T07:26:00;15.73;;;8.10;;
37545;SDS011;23389;52.484;13.572;2023-05-02T07:28:25;12.50;;;7.30;;
37545;SDS011;23389;52.484;13.572;2023-05-02T07:30:50;11.13;;;7.53;;
37545;SDS011;23389;52.484;13.572;2023-05-02T07:33:15;12.73;;;7.80;;
37545;SDS011;23389;52.484;13.572;2023-05-02T07:35:41;12.07;;;7.27;;
37545;SDS011;23389;52.484;13.572;2023-05-02T07:38:06;11.52;;;7.03;;
37545;SDS011;23389;52.484;13.572;2023-05-02T07:40:31;10.98;;;6.68;;
37545;SDS011;23389;52.484;13.572;2023-05-02T07:42:57;9.57;;;5.87;;
37545;SDS011;23389;52.484;13.572;2023-05-02T07:45:22;10.40;;;6.88;;
37545;SDS011;23389;52.484;13.572;2023-05-02T07:47:47;9.87;;;6.40;;
37545;SDS011;23389;52.484;13.572;2023-05-02T07:50:12;12.82;;;6.53;;
37545;SDS011;23389;52.484;13.572;2023-05-02T07:52:37;9.65;;;6.20;;
37545;SDS011;23389;52.484;13.572;2023-05-02T07:55:02;11.00;;;6.40;;
37545;SDS011;23389;52.484;13.572;2023-05-02T07:57:27;10.57;;;6.32;;
37545;SDS011;23389;52.484;13.572;2023-05-02T07:59:53;10.87;;;6.40;;
37545;SDS011;23389;52.484;13.572;2023-05-02T08:02:21;10.77;;;6.45;;
37545;SDS011;23389;52.484;13.572;2023-05-02T08:04:47;10.63;;;6.22;;
37545;SDS011;23389;52.484;13.572;2023-05-02T08:07:13;10.95;;;6.03;;
37545;SDS011;23389;52.484;13.572;2023-05-02T08:09:38;10.88;;;6.15;;
37545;SDS011;23389;52.484;13.572;2023-05-02T08:12:03;10.10;;;5.97;;
37545;SDS011;23389;52.484;13.572;2023-05-02T08:14:28;10.10;;;5.50;;
37545;SDS011;23389;52.484;13.572;2023-05-02T08:16:53;10.40;;;6.40;;
37545;SDS011;23389;52.484;13.572;2023-05-02T08:19:18;10.63;;;6.03;;
37545;SDS011;23389;52.484;13.572;2023-05-02T08:21:43;10.55;;;5.45;;
37545;SDS011;23389;52.484;13.572;2023-05-02T08:24:08;9.95;;;5.47;;
37545;SDS011;23389;52.484;13.572;2023-05-02T08:26:33;10.20;;;6.00;;
37545;SDS011;23389;52.484;13.572;2023-05-02T08:28:59;9.18;;;5.22;;
37545;SDS011;23389;52.484;13.572;2023-05-02T08:31:24;6.90;;;4.13;;
37545;SDS011;23389;52.484;13.572;2023-05-02T08:33:49;7.43;;;4.38;;
37545;SDS011;23389;52.484;13.572;2023-05-02T08:36:15;8.88;;;4.35;;
37545;SDS011;23389;52.484;13.572;2023-05-02T08:38:41;9.00;;;4.65;;
37545;SDS011;23389;52.484;13.572;2023-05-02T08:41:10;7.72;;;4.50;;
37545;SDS011;23389;52.484;13.572;2023-05-02T08:43:35;9.32;;;4.10;;
37545;SDS011;23389;52.484;13.572;2023-05-02T08:46:01;7.05;;;4.40;;
37545;SDS011;23389;52.484;13.572;2023-05-02T08:48:28;9.45;;;4.60;;
37545;SDS011;23389;52.484;13.572;2023-05-02T08:50:54;7.22;;;4.00;;
37545;SDS011;23389;52.484;13.572;2023-05-02T08:53:19;8.35;;;4.15;;
37545;SDS011;23389;52.484;13.572;2023-05-02T08:55:45;8.82;;;4.30;;
37545;SDS011;23389;52.484;13.572;2023-05-02T08:58:10;10.10;;;4.68;;
37545;SDS011;23389;52.484;13.572;2023-05-02T09:00:39;9.45;;;5.07;;
37545;SDS011;23389;52.484;13.572;2023-05-02T09:03:05;8.73;;;5.30;;
37545;SDS011;23389;52.484;13.572;2023-05-02T09:05:36;8.35;;;4.65;;
37545;SDS011;23389;52.484;13.572;2023-05-02T09:08:04;8.38;;;4.90;;
37545;SDS011;23389;52.484;13.572;2023-05-02T09:10:29;8.70;;;5.20;;
37545;SDS011;23389;52.484;13.572;2023-05-02T09:12:54;8.32;;;4.50;;
37545;SDS011;23389;52.484;13.572;2023-05-02T09:15:20;8.03;;;4.50;;
37545;SDS011;23389;52.484;13.572;2023-05-02T09:17:46;8.83;;;4.77;;
37545;SDS011;23389;52.484;13.572;2023-05-02T09:20:12;6.82;;;4.10;;
37545;SDS011;23389;52.484;13.572;2023-05-02T09:22:37;7.38;;;3.88;;
37545;SDS011;23389;52.484;13.572;2023-05-02T09:25:04;7.38;;;3.83;;
37545;SDS011;23389;52.484;13.572;2023-05-02T09:27:29;6.47;;;3.60;;
37545;SDS011;23389;52.484;13.572;2023-05-02T09:32:45;7.57;;;3.92;;
37545;SDS011;23389;52.484;13.572;2023-05-02T09:35:10;7.75;;;3.97;;
37545;SDS011;23389;52.484;13.572;2023-05-02T09:37:35;7.28;;;3.60;;
37545;SDS011;23389;52.484;13.572;2023-05-02T09:40:04;7.90;;;4.20;;
37545;SDS011;23389;52.484;13.572;2023-05-02T09:42:30;7.70;;;3.33;;
37545;SDS011;23389;52.484;13.572;2023-05-02T09:44:55;7.60;;;3.63;;
37545;SDS011;23389;52.484;13.572;2023-05-02T09:47:23;7.47;;;3.47;;
37545;SDS011;23389;52.484;13.572;2023-05-02T09:49:48;8.17;;;3.80;;
37545;SDS011;23389;52.484;13.572;2023-05-02T09:52:14;8.38;;;3.90;;
37545;SDS011;23389;52.484;13.572;2023-05-02T09:54:40;8.40;;;4.35;;
37545;SDS011;23389;52.484;13.572;2023-05-02T09:57:05;7.82;;;4.30;;
37545;SDS011;23389;52.484;13.572;2023-05-02T09:59:31;8.32;;;4.28;;
37545;SDS011;23389;52.484;13.572;2023-05-02T10:01:57;8.20;;;3.88;;
37545;SDS011;23389;52.484;13.572;2023-05-02T10:04:22;8.27;;;4.40;;
37545;SDS011;23389;52.484;13.572;2023-05-02T10:06:48;7.13;;;4.03;;
37545;SDS011;23389;52.484;13.572;2023-05-02T10:09:15;7.78;;;3.78;;
37545;SDS011;23389;52.484;13.572;2023-05-02T10:11:43;6.15;;;3.40;;
37545;SDS011;23389;52.484;13.572;2023-05-02T10:14:09;6.87;;;3.53;;
37545;SDS011;23389;52.484;13.572;2023-05-02T10:16:35;6.43;;;3.53;;
37545;SDS011;23389;52.484;13.572;2023-05-02T10:19:06;5.45;;;3.38;;
37545;SDS011;23389;52.484;13.572;2023-05-02T10:21:32;8.20;;;3.10;;
37545;SDS011;23389;52.484;13.572;2023-05-02T10:23:58;6.35;;;3.00;;
37545;SDS011;23389;52.484;13.572;2023-05-02T10:26:24;5.82;;;2.83;;
37545;SDS011;23389;52.484;13.572;2023-05-02T10:28:51;6.18;;;2.95;;
37545;SDS011;23389;52.484;13.572;2023-05-02T10:31:17;6.05;;;3.00;;
37545;SDS011;23389;52.484;13.572;2023-05-02T10:33:42;5.60;;;3.00;;
37545;SDS011;23389;52.484;13.572;2023-05-02T10:36:08;6.63;;;2.88;;
37545;SDS011;23389;52.484;13.572;2023-05-02T10:38:34;6.05;;;2.95;;
37545;SDS011;23389;52.484;13.572;2023-05-02T10:41:00;5.75;;;2.75;;
37545;SDS011;23389;52.484;13.572;2023-05-02T10:43:29;5.95;;;2.85;;
37545;SDS011;23389;52.484;13.572;2023-05-02T10:45:54;5.20;;;3.17;;
37545;SDS011;23389;52.484;13.572;2023-05-02T10:48:21;6.30;;;3.27;;
37545;SDS011;23389;52.484;13.572;2023-05-02T10:50:50;6.70;;;3.22;;
37545;SDS011;23389;52.484;13.572;2023-05-02T10:56:06;7.28;;;3.17;;
37545;SDS011;23389;52.484;13.572;2023-05-02T10:58:31;6.75;;;3.30;;
37545;SDS011;23389;52.484;13.572;2023-05-02T11:01:06;6.93;;;3.53;;
37545;SDS011;23389;52.484;13.572;2023-05-02T11:03:55;6.32;;;3.13;;
37545;SDS011;23389;52.484;13.572;2023-05-02T11:06:21;6.43;;;3.58;;
37545;SDS011;23389;52.484;13.572;2023-05-02T11:08:46;6.97;;;3.08;;
37545;SDS011;23389;52.484;13.572;2023-05-02T11:13:55;5.88;;;3.08;;
37545;SDS011;23389;52.484;13.572;2023-05-02T11:16:20;5.43;;;2.75;;
37545;SDS011;23389;52.484;13.572;2023-05-02T11:18:57;7.18;;;3.13;;
37545;SDS011;23389;52.484;13.572;2023-05-02T11:21:25;6.88;;;3.40;;
37545;SDS011;23389;52.484;13.572;2023-05-02T11:23:52;7.88;;;3.80;;
37545;SDS011;23389;52.484;13.572;2023-05-02T11:26:38;7.28;;;3.85;;
37545;SDS011;23389;52.484;13.572;2023-05-02T11:29:03;11.15;;;4.45;;
37545;SDS011;23389;52.484;13.572;2023-05-02T11:34:02;7.32;;;4.05;;
37545;SDS011;23389;52.484;13.572;2023-05-02T11:36:31;9.07;;;4.85;;
37545;SDS011;23389;52.484;13.572;2023-05-02T11:38:57;10.63;;;5.50;;
37545;SDS011;23389;52.484;13.572;2023-05-02T11:41:22;11.33;;;5.73;;
37545;SDS011;23389;52.484;13.572;2023-05-02T11:43:47;13.20;;;5.83;;
37545;SDS011;23389;52.484;13.572;2023-05-02T11:46:26;10.30;;;5.63;;
37545;SDS011;23389;52.484;13.572;2023-05-02T11:48:51;13.43;;;5.83;;
37545;SDS011;23389;52.484;13.572;2023-05-02T11:51:21;18.70;;;6.82;;
37545;SDS011;23389;52.484;13.572;2023-05-02T11:53:46;12.77;;;5.63;;
37545;SDS011;23389;52.484;13.572;2023-05-02T11:56:11;10.93;;;5.60;;
37545;SDS011;23389;52.484;13.572;2023-05-02T11:58:37;14.63;;;6.00;;
37545;SDS011;23389;52.484;13.572;2023-05-02T12:01:12;12.02;;;5.13;;
37545;SDS011;23389;52.484;13.572;2023-05-02T12:03:37;10.80;;;5.45;;
37545;SDS011;23389;52.484;13.572;2023-05-02T12:06:09;14.27;;;5.10;;
37545;SDS011;23389;52.484;13.572;2023-05-02T12:08:35;12.55;;;4.55;;
37545;SDS011;23389;52.484;13.572;2023-05-02T12:11:00;11.57;;;4.18;;
37545;SDS011;23389;52.484;13.572;2023-05-02T12:13:25;14.07;;;4.32;;
37545;SDS011;23389;52.484;13.572;2023-05-02T12:15:51;10.47;;;4.40;;
37545;SDS011;23389;52.484;13.572;2023-05-02T12:18:17;10.55;;;3.97;;
37545;SDS011;23389;52.484;13.572;2023-05-02T12:20:42;7.88;;;3.22;;
37545;SDS011;23389;52.484;13.572;2023-05-02T12:23:07;8.75;;;2.90;;
37545;SDS011;23389;52.484;13.572;2023-05-02T12:25:37;9.57;;;2.97;;
37545;SDS011;23389;52.484;13.572;2023-05-02T12:28:03;8.80;;;3.10;;
37545;SDS011;23389;52.484;13.572;2023-05-02T12:30:28;8.82;;;3.20;;
37545;SDS011;23389;52.484;13.572;2023-05-02T12:32:55;8.00;;;2.92;;
37545;SDS011;23389;52.484;13.572;2023-05-02T12:35:20;9.43;;;3.33;;
37545;SDS011;23389;52.484;13.572;2023-05-02T12:37:46;10.15;;;3.72;;
37545;SDS011;23389;52.484;13.572;2023-05-02T12:40:15;8.70;;;3.13;;
37545;SDS011;23389;52.484;13.572;2023-05-02T12:42:41;8.65;;;2.60;;
37545;SDS011;23389;52.484;13.572;2023-05-02T12:45:15;9.50;;;3.40;;
37545;SDS011;23389;52.484;13.572;2023-05-02T12:47:44;7.68;;;2.72;;
37545;SDS011;23389;52.484;13.572;2023-05-02T12:52:51;11.15;;;2.78;;
37545;SDS011;23389;52.484;13.572;2023-05-02T12:55:23;11.52;;;3.53;;
37545;SDS011;23389;52.484;13.572;2023-05-02T12:57:49;8.52;;;3.17;;
37545;SDS011;23389;52.484;13.572;2023-05-02T13:00:17;9.68;;;3.63;;
37545;SDS011;23389;52.484;13.572;2023-05-02T13:02:42;9.35;;;2.90;;
37545;SDS011;23389;52.484;13.572;2023-05-02T13:05:14;11.45;;;3.20;;
37545;SDS011;23389;52.484;13.572;2023-05-02T13:07:39;9.02;;;3.20;;
37545;SDS011;23389;52.484;13.572;2023-05-02T13:10:05;9.00;;;3.13;;
37545;SDS011;23389;52.484;13.572;2023-05-02T13:12:30;10.70;;;3.22;;
37545;SDS011;23389;52.484;13.572;2023-05-02T13:14:55;10.77;;;4.10;;
37545;SDS011;23389;52.484;13.572;2023-05-02T13:17:20;10.25;;;3.53;;
37545;SDS011;23389;52.484;13.572;2023-05-02T13:19:46;12.35;;;3.78;;
37545;SDS011;23389;52.484;13.572;2023-05-02T13:22:11;11.57;;;3.63;;
37545;SDS011;23389;52.484;13.572;2023-05-02T13:24:36;9.50;;;3.50;;
37545;SDS011;23389;52.484;13.572;2023-05-02T13:27:01;11.30;;;4.07;;
37545;SDS011;23389;52.484;13.572;2023-05-02T13:29:26;11.32;;;3.80;;
37545;SDS011;23389;52.484;13.572;2023-05-02T13:31:52;12.77;;;4.07;;
37545;SDS011;23389;52.484;13.572;2023-05-02T13:34:17;10.25;;;3.60;;
37545;SDS011;23389;52.484;13.572;2023-05-02T13:36:42;10.83;;;3.20;;
37545;SDS011;23389;52.484;13.572;2023-05-02T13:39:09;15.45;;;4.68;;
37545;SDS011;23389;52.484;13.572;2023-05-02T13:41:35;13.63;;;3.92;;
37545;SDS011;23389;52.484;13.572;2023-05-02T13:44:01;7.97;;;3.10;;
37545;SDS011;23389;52.484;13.572;2023-05-02T13:46:26;14.07;;;4.50;;
37545;SDS011;23389;52.484;13.572;2023-05-02T13:48:51;12.38;;;4.22;;
37545;SDS011;23389;52.484;13.572;2023-05-02T13:51:16;9.30;;;3.40;;
37545;SDS011;23389;52.484;13.572;2023-05-02T13:53:41;7.60;;;2.80;;
37545;SDS011;23389;52.484;13.572;2023-05-02T13:56:07;9.50;;;3.03;;
37545;SDS011;23389;52.484;13.572;2023-05-02T13:58:32;11.10;;;3.45;;
37545;SDS011;23389;52.484;13.572;2023-05-02T14:00:57;8.60;;;3.97;;
37545;SDS011;23389;52.484;13.572;2023-05-02T14:03:22;10.10;;;3.15;;
37545;SDS011;23389;52.484;13.572;2023-05-02T14:05:47;7.90;;;3.17;;
37545;SDS011;23389;52.484;13.572;2023-05-02T14:08:12;9.15;;;3.08;;
37545;SDS011;23389;52.484;13.572;2023-05-02T14:13:07;10.27;;;3.70;;
37545;SDS011;23389;52.484;13.572;2023-05-02T14:15:32;8.40;;;3.90;;
37545;SDS011;23389;52.484;13.572;2023-05-02T14:17:57;10.00;;;3.70;;
37545;SDS011;23389;52.484;13.572;2023-05-02T14:20:22;9.57;;;3.43;;
37545;SDS011;23389;52.484;13.572;2023-05-02T14:22:47;8.98;;;3.00;;
37545;SDS011;23389;52.484;13.572;2023-05-02T14:25:12;11.07;;;3.60;;
37545;SDS011;23389;52.484;13.572;2023-05-02T14:27:39;9.82;;;3.20;;
37545;SDS011;23389;52.484;13.572;2023-05-02T14:30:05;8.90;;;3.75;;
37545;SDS011;23389;52.484;13.572;2023-05-02T14:32:31;9.85;;;3.53;;
37545;SDS011;23389;52.484;13.572;2023-05-02T14:34:56;8.93;;;3.33;;
37545;SDS011;23389;52.484;13.572;2023-05-02T14:37:21;9.07;;;3.73;;
37545;SDS011;23389;52.484;13.572;2023-05-02T14:39:46;9.07;;;3.03;;
37545;SDS011;23389;52.484;13.572;2023-05-02T14:42:13;10.48;;;3.65;;
37545;SDS011;23389;52.484;13.572;2023-05-02T14:44:38;7.03;;;3.13;;
37545;SDS011;23389;52.484;13.572;2023-05-02T14:47:03;8.37;;;3.20;;
37545;SDS011;23389;52.484;13.572;2023-05-02T14:49:29;8.60;;;3.67;;